sensor_id;sensor_type;location;lat;lon;timestamp;P1;durP1;ratioP1;P2;durP2;ratioP2
12784;SDS011;6456;42.680;23.260;2022-11-20T00:01:25;4.53;;;1.30;;
12784;SDS011;6456;42.680;23.260;2022-11-20T00:03:53;2.23;;;1.30;;
12784;SDS011;6456;42.680;23.260;2022-11-20T00:06:22;2.60;;;1.30;;
12784;SDS011;6456;42.680;23.260;2022-11-20T00:08:49;1.73;;;1.10;;
12784;SDS011;6456;42.680;23.260;2022-11-20T00:11:18;2.27;;;1.20;;
12784;SDS011;6456;42.680;23.260;2022-11-20T00:13:46;2.17;;;1.20;;
12784;SDS011;6456;42.680;23.260;2022-11-20T00:16:15;2.50;;;1.50;;
12784;SDS011;6456;42.680;23.260;2022-11-20T00:18:43;4.63;;;1.30;;
12784;SDS011;6456;42.680;23.260;2022-11-20T00:21:11;1.97;;;1.20;;
12784;SDS011;6456;42.680;23.260;2022-11-20T00:23:40;2.97;;;1.27;;
12784;SDS011;6456;42.680;23.260;2022-11-20T00:26:07;2.43;;;1.13;;
12784;SDS011;6456;42.680;23.260;2022-11-20T00:28:37;2.40;;;0.90;;
12784;SDS011;6456;42.680;23.260;2022-11-20T00:31:05;4.43;;;1.10;;
12784;SDS011;6456;42.680;23.260;2022-11-20T00:33:33;2.90;;;0.90;;
12784;SDS011;6456;42.680;23.260;2022-11-20T00:36:00;1.20;;;1.10;;
12784;SDS011;6456;42.680;23.260;2022-11-20T00:38:29;5.37;;;1.63;;
12784;SDS011;6456;42.680;23.260;2022-11-20T00:40:56;2.10;;;1.40;;
12784;SDS011;6456;42.680;23.260;2022-11-20T00:43:24;1.43;;;1.10;;
12784;SDS011;6456;42.680;23.260;2022-11-20T00:45:56;2.10;;;1.00;;
12784;SDS011;6456;42.680;23.260;2022-11-20T00:48:24;2.70;;;1.30;;
12784;SDS011;6456;42.680;23.260;2022-11-20T00:50:51;1.97;;;1.43;;
12784;SDS011;6456;42.680;23.260;2022-11-20T00:53:18;1.67;;;1.10;;
12784;SDS011;6456;42.680;23.260;2022-11-20T00:55:52;2.53;;;1.40;;
12784;SDS011;6456;42.680;23.260;2022-11-20T00:58:19;3.00;;;1.43;;
12784;SDS011;6456;42.680;23.260;2022-11-20T01:00:46;1.77;;;1.30;;
12784;SDS011;6456;42.680;23.260;2022-11-20T01:03:16;1.10;;;1.00;;
12784;SDS011;6456;42.680;23.260;2022-11-20T01:05:43;2.70;;;1.17;;
12784;SDS011;6456;42.680;23.260;2022-11-20T01:08:10;5.03;;;1.27;;
12784;SDS011;6456;42.680;23.260;2022-11-20T01:10:37;4.53;;;1.10;;
12784;SDS011;6456;42.680;23.260;2022-11-20T01:13:04;1.97;;;1.40;;
12784;SDS011;6456;42.680;23.260;2022-11-20T01:15:48;1.20;;;1.10;;
12784;SDS011;6456;42.680;23.260;2022-11-20T01:18:16;3.23;;;1.30;;
12784;SDS011;6456;42.680;23.260;2022-11-20T01:20:43;1.63;;;1.23;;
12784;SDS011;6456;42.680;23.260;2022-11-20T01:23:10;1.87;;;1.10;;
12784;SDS011;6456;42.680;23.260;2022-11-20T01:25:37;2.40;;;1.07;;
12784;SDS011;6456;42.680;23.260;2022-11-20T01:28:04;3.10;;;0.93;;
12784;SDS011;6456;42.680;23.260;2022-11-20T01:30:30;1.70;;;1.00;;
12784;SDS011;6456;42.680;23.260;2022-11-20T01:32:57;2.53;;;1.40;;
12784;SDS011;6456;42.680;23.260;2022-11-20T01:35:25;4.77;;;1.00;;
12784;SDS011;6456;42.680;23.260;2022-11-20T01:37:52;1.10;;;0.97;;
12784;SDS011;6456;42.680;23.260;2022-11-20T01:40:19;1.40;;;0.93;;
12784;SDS011;6456;42.680;23.260;2022-11-20T01:42:47;4.00;;;1.23;;
12784;SDS011;6456;42.680;23.260;2022-11-20T01:48:34;4.03;;;1.30;;
12784;SDS011;6456;42.680;23.260;2022-11-20T01:51:07;2.90;;;1.40;;
12784;SDS011;6456;42.680;23.260;2022-11-20T01:53:43;1.90;;;1.03;;
12784;SDS011;6456;42.680;23.260;2022-11-20T01:56:10;1.40;;;1.10;;
12784;SDS011;6456;42.680;23.260;2022-11-20T01:58:41;3.27;;;1.00;;
12784;SDS011;6456;42.680;23.260;2022-11-20T02:01:13;1.90;;;1.03;;
12784;SDS011;6456;42.680;23.260;2022-11-20T02:03:40;1.27;;;1.00;;
12784;SDS011;6456;42.680;23.260;2022-11-20T02:06:11;0.97;;;0.93;;
12784;SDS011;6456;42.680;23.260;2022-11-20T02:08:43;1.50;;;0.93;;
12784;SDS011;6456;42.680;23.260;2022-11-20T02:11:10;2.77;;;1.23;;
12784;SDS011;6456;42.680;23.260;2022-11-20T02:13:39;1.40;;;0.80;;
12784;SDS011;6456;42.680;23.260;2022-11-20T02:16:09;3.10;;;1.07;;
12784;SDS011;6456;42.680;23.260;2022-11-20T02:18:38;1.50;;;1.00;;
12784;SDS011;6456;42.680;23.260;2022-11-20T02:21:06;3.53;;;1.43;;
12784;SDS011;6456;42.680;23.260;2022-11-20T02:23:39;2.47;;;1.10;;
12784;SDS011;6456;42.680;23.260;2022-11-20T02:26:12;2.00;;;1.23;;
12784;SDS011;6456;42.680;23.260;2022-11-20T02:28:42;4.07;;;1.10;;
12784;SDS011;6456;42.680;23.260;2022-11-20T02:31:09;2.37;;;0.90;;
12784;SDS011;6456;42.680;23.260;2022-11-20T02:33:36;2.93;;;1.10;;
12784;SDS011;6456;42.680;23.260;2022-11-20T02:36:03;2.67;;;1.10;;
12784;SDS011;6456;42.680;23.260;2022-11-20T02:38:31;1.17;;;1.07;;
12784;SDS011;6456;42.680;23.260;2022-11-20T02:40:58;2.07;;;1.10;;
12784;SDS011;6456;42.680;23.260;2022-11-20T02:43:26;2.23;;;1.03;;
12784;SDS011;6456;42.680;23.260;2022-11-20T02:45:53;1.57;;;0.93;;
12784;SDS011;6456;42.680;23.260;2022-11-20T02:48:20;1.80;;;1.30;;
12784;SDS011;6456;42.680;23.260;2022-11-20T02:50:46;2.30;;;1.23;;
12784;SDS011;6456;42.680;23.260;2022-11-20T02:53:13;7.03;;;1.83;;
12784;SDS011;6456;42.680;23.260;2022-11-20T02:55:40;2.83;;;1.23;;
12784;SDS011;6456;42.680;23.260;2022-11-20T02:58:07;5.07;;;1.57;;
12784;SDS011;6456;42.680;23.260;2022-11-20T03:00:36;4.83;;;1.60;;
12784;SDS011;6456;42.680;23.260;2022-11-20T03:03:03;3.97;;;1.53;;
12784;SDS011;6456;42.680;23.260;2022-11-20T03:05:30;3.13;;;1.40;;
12784;SDS011;6456;42.680;23.260;2022-11-20T03:07:57;6.57;;;1.80;;
12784;SDS011;6456;42.680;23.260;2022-11-20T03:10:24;4.43;;;1.73;;
12784;SDS011;6456;42.680;23.260;2022-11-20T03:12:52;1.60;;;1.30;;
12784;SDS011;6456;42.680;23.260;2022-11-20T03:15:20;1.73;;;1.50;;
12784;SDS011;6456;42.680;23.260;2022-11-20T03:17:48;3.03;;;1.20;;
12784;SDS011;6456;42.680;23.260;2022-11-20T03:20:19;4.63;;;1.97;;
12784;SDS011;6456;42.680;23.260;2022-11-20T03:22:45;3.40;;;1.67;;
12784;SDS011;6456;42.680;23.260;2022-11-20T03:25:12;3.00;;;1.40;;
12784;SDS011;6456;42.680;23.260;2022-11-20T03:27:39;4.03;;;1.60;;
12784;SDS011;6456;42.680;23.260;2022-11-20T03:30:07;2.70;;;1.30;;
12784;SDS011;6456;42.680;23.260;2022-11-20T03:32:34;2.80;;;1.20;;
12784;SDS011;6456;42.680;23.260;2022-11-20T03:35:03;4.50;;;1.40;;
12784;SDS011;6456;42.680;23.260;2022-11-20T03:37:31;3.53;;;1.70;;
12784;SDS011;6456;42.680;23.260;2022-11-20T03:39:58;3.07;;;1.67;;
12784;SDS011;6456;42.680;23.260;2022-11-20T03:42:25;2.37;;;1.30;;
12784;SDS011;6456;42.680;23.260;2022-11-20T03:45:09;3.37;;;1.50;;
12784;SDS011;6456;42.680;23.260;2022-11-20T03:47:36;3.20;;;1.47;;
12784;SDS011;6456;42.680;23.260;2022-11-20T03:50:05;1.40;;;1.20;;
12784;SDS011;6456;42.680;23.260;2022-11-20T03:52:33;2.07;;;1.30;;
12784;SDS011;6456;42.680;23.260;2022-11-20T03:55:00;2.70;;;1.27;;
12784;SDS011;6456;42.680;23.260;2022-11-20T03:57:27;3.20;;;1.10;;
12784;SDS011;6456;42.680;23.260;2022-11-20T03:59:53;2.70;;;1.20;;
12784;SDS011;6456;42.680;23.260;2022-11-20T04:02:20;1.40;;;1.30;;
12784;SDS011;6456;42.680;23.260;2022-11-20T04:04:47;5.47;;;1.20;;
12784;SDS011;6456;42.680;23.260;2022-11-20T04:07:16;1.40;;;1.17;;
12784;SDS011;6456;42.680;23.260;2022-11-20T04:09:43;2.67;;;1.23;;
12784;SDS011;6456;42.680;23.260;2022-11-20T04:12:10;2.03;;;1.27;;
12784;SDS011;6456;42.680;23.260;2022-11-20T04:14:37;2.73;;;1.30;;
12784;SDS011;6456;42.680;23.260;2022-11-20T04:17:03;1.60;;;1.43;;
12784;SDS011;6456;42.680;23.260;2022-11-20T04:19:30;2.40;;;1.13;;
12784;SDS011;6456;42.680;23.260;2022-11-20T04:21:57;2.77;;;1.10;;
12784;SDS011;6456;42.680;23.260;2022-11-20T04:24:26;1.63;;;1.00;;
12784;SDS011;6456;42.680;23.260;2022-11-20T04:26:53;3.40;;;1.30;;
12784;SDS011;6456;42.680;23.260;2022-11-20T04:29:20;3.30;;;1.20;;
12784;SDS011;6456;42.680;23.260;2022-11-20T04:31:46;1.23;;;1.10;;
12784;SDS011;6456;42.680;23.260;2022-11-20T04:34:13;1.83;;;1.07;;
12784;SDS011;6456;42.680;23.260;2022-11-20T04:36:40;1.90;;;1.30;;
12784;SDS011;6456;42.680;23.260;2022-11-20T04:39:11;3.00;;;1.40;;
12784;SDS011;6456;42.680;23.260;2022-11-20T04:41:40;1.90;;;1.07;;
12784;SDS011;6456;42.680;23.260;2022-11-20T04:44:07;1.33;;;1.10;;
12784;SDS011;6456;42.680;23.260;2022-11-20T04:46:35;2.23;;;1.00;;
12784;SDS011;6456;42.680;23.260;2022-11-20T04:49:04;2.23;;;1.30;;
12784;SDS011;6456;42.680;23.260;2022-11-20T04:51:32;2.47;;;0.97;;
12784;SDS011;6456;42.680;23.260;2022-11-20T04:53:59;1.23;;;1.13;;
12784;SDS011;6456;42.680;23.260;2022-11-20T04:56:26;1.20;;;1.10;;
12784;SDS011;6456;42.680;23.260;2022-11-20T04:58:54;2.23;;;1.33;;
12784;SDS011;6456;42.680;23.260;2022-11-20T05:01:22;2.43;;;1.10;;
12784;SDS011;6456;42.680;23.260;2022-11-20T05:03:50;3.93;;;1.37;;
12784;SDS011;6456;42.680;23.260;2022-11-20T05:06:18;2.03;;;1.10;;
12784;SDS011;6456;42.680;23.260;2022-11-20T05:08:46;3.63;;;1.07;;
12784;SDS011;6456;42.680;23.260;2022-11-20T05:11:15;3.10;;;1.03;;
12784;SDS011;6456;42.680;23.260;2022-11-20T05:13:43;1.20;;;0.97;;
12784;SDS011;6456;42.680;23.260;2022-11-20T05:16:12;2.70;;;1.10;;
12784;SDS011;6456;42.680;23.260;2022-11-20T05:18:40;2.47;;;1.00;;
12784;SDS011;6456;42.680;23.260;2022-11-20T05:21:08;3.70;;;1.03;;
12784;SDS011;6456;42.680;23.260;2022-11-20T05:23:37;2.70;;;1.13;;
12784;SDS011;6456;42.680;23.260;2022-11-20T05:26:05;2.97;;;1.13;;
12784;SDS011;6456;42.680;23.260;2022-11-20T05:28:33;2.30;;;1.20;;
12784;SDS011;6456;42.680;23.260;2022-11-20T05:31:04;2.00;;;0.97;;
12784;SDS011;6456;42.680;23.260;2022-11-20T05:33:34;3.20;;;1.27;;
12784;SDS011;6456;42.680;23.260;2022-11-20T05:36:02;4.30;;;1.10;;
12784;SDS011;6456;42.680;23.260;2022-11-20T05:38:29;3.43;;;1.03;;
12784;SDS011;6456;42.680;23.260;2022-11-20T05:41:02;1.63;;;1.03;;
12784;SDS011;6456;42.680;23.260;2022-11-20T05:43:31;1.70;;;1.07;;
12784;SDS011;6456;42.680;23.260;2022-11-20T05:45:59;1.10;;;1.00;;
12784;SDS011;6456;42.680;23.260;2022-11-20T05:48:26;2.87;;;1.07;;
12784;SDS011;6456;42.680;23.260;2022-11-20T05:50:55;3.17;;;1.20;;
12784;SDS011;6456;42.680;23.260;2022-11-20T05:53:23;2.33;;;0.87;;
12784;SDS011;6456;42.680;23.260;2022-11-20T05:55:55;2.80;;;1.30;;
12784;SDS011;6456;42.680;23.260;2022-11-20T05:58:23;2.23;;;1.40;;
12784;SDS011;6456;42.680;23.260;2022-11-20T06:00:50;3.23;;;1.13;;
12784;SDS011;6456;42.680;23.260;2022-11-20T06:03:17;2.73;;;1.10;;
12784;SDS011;6456;42.680;23.260;2022-11-20T06:05:44;5.43;;;1.20;;
12784;SDS011;6456;42.680;23.260;2022-11-20T06:08:12;2.03;;;1.30;;
12784;SDS011;6456;42.680;23.260;2022-11-20T06:10:39;2.50;;;1.13;;
12784;SDS011;6456;42.680;23.260;2022-11-20T06:13:06;2.10;;;1.17;;
12784;SDS011;6456;42.680;23.260;2022-11-20T06:15:33;2.10;;;1.10;;
12784;SDS011;6456;42.680;23.260;2022-11-20T06:18:03;3.83;;;1.20;;
12784;SDS011;6456;42.680;23.260;2022-11-20T06:20:30;3.33;;;1.60;;
12784;SDS011;6456;42.680;23.260;2022-11-20T06:22:58;2.33;;;1.20;;
12784;SDS011;6456;42.680;23.260;2022-11-20T06:25:26;2.30;;;1.40;;
12784;SDS011;6456;42.680;23.260;2022-11-20T06:27:53;2.27;;;1.20;;
12784;SDS011;6456;42.680;23.260;2022-11-20T06:30:19;3.63;;;1.03;;
12784;SDS011;6456;42.680;23.260;2022-11-20T06:32:46;2.77;;;1.40;;
12784;SDS011;6456;42.680;23.260;2022-11-20T06:35:13;4.23;;;1.30;;
12784;SDS011;6456;42.680;23.260;2022-11-20T06:37:40;2.20;;;1.40;;
12784;SDS011;6456;42.680;23.260;2022-11-20T06:40:09;3.53;;;1.27;;
12784;SDS011;6456;42.680;23.260;2022-11-20T06:42:38;1.67;;;1.10;;
12784;SDS011;6456;42.680;23.260;2022-11-20T06:45:06;1.07;;;0.90;;
12784;SDS011;6456;42.680;23.260;2022-11-20T06:47:34;2.77;;;1.20;;
12784;SDS011;6456;42.680;23.260;2022-11-20T06:50:01;2.23;;;1.30;;
12784;SDS011;6456;42.680;23.260;2022-11-20T06:52:28;1.60;;;0.80;;
12784;SDS011;6456;42.680;23.260;2022-11-20T06:54:54;3.87;;;1.27;;
12784;SDS011;6456;42.680;23.260;2022-11-20T06:57:21;2.97;;;1.13;;
12784;SDS011;6456;42.680;23.260;2022-11-20T06:59:49;3.07;;;1.10;;
12784;SDS011;6456;42.680;23.260;2022-11-20T07:02:16;2.57;;;1.10;;
12784;SDS011;6456;42.680;23.260;2022-11-20T07:04:43;3.87;;;1.13;;
12784;SDS011;6456;42.680;23.260;2022-11-20T07:07:10;1.50;;;1.00;;
12784;SDS011;6456;42.680;23.260;2022-11-20T07:09:37;1.87;;;1.10;;
12784;SDS011;6456;42.680;23.260;2022-11-20T07:12:04;4.60;;;1.00;;
12784;SDS011;6456;42.680;23.260;2022-11-20T07:14:32;1.87;;;1.00;;
12784;SDS011;6456;42.680;23.260;2022-11-20T07:17:00;2.70;;;1.30;;
12784;SDS011;6456;42.680;23.260;2022-11-20T07:19:27;3.60;;;1.60;;
12784;SDS011;6456;42.680;23.260;2022-11-20T07:21:54;3.27;;;1.70;;
12784;SDS011;6456;42.680;23.260;2022-11-20T07:24:21;3.10;;;1.40;;
12784;SDS011;6456;42.680;23.260;2022-11-20T07:26:48;3.57;;;1.20;;
12784;SDS011;6456;42.680;23.260;2022-11-20T07:29:15;4.17;;;1.43;;
12784;SDS011;6456;42.680;23.260;2022-11-20T07:31:42;4.00;;;1.20;;
12784;SDS011;6456;42.680;23.260;2022-11-20T07:34:10;2.87;;;1.70;;
12784;SDS011;6456;42.680;23.260;2022-11-20T07:36:37;3.00;;;1.27;;
12784;SDS011;6456;42.680;23.260;2022-11-20T07:39:04;2.67;;;1.17;;
12784;SDS011;6456;42.680;23.260;2022-11-20T07:41:31;5.97;;;2.23;;
12784;SDS011;6456;42.680;23.260;2022-11-20T07:43:58;3.57;;;1.30;;
12784;SDS011;6456;42.680;23.260;2022-11-20T07:46:25;4.93;;;2.53;;
12784;SDS011;6456;42.680;23.260;2022-11-20T07:48:52;6.63;;;2.07;;
12784;SDS011;6456;42.680;23.260;2022-11-20T07:51:20;3.93;;;1.80;;
12784;SDS011;6456;42.680;23.260;2022-11-20T07:53:47;5.33;;;2.93;;
12784;SDS011;6456;42.680;23.260;2022-11-20T07:56:17;6.90;;;1.87;;
12784;SDS011;6456;42.680;23.260;2022-11-20T07:58:43;7.47;;;2.93;;
12784;SDS011;6456;42.680;23.260;2022-11-20T08:01:10;8.53;;;3.10;;
12784;SDS011;6456;42.680;23.260;2022-11-20T08:03:37;7.40;;;2.80;;
12784;SDS011;6456;42.680;23.260;2022-11-20T08:06:04;7.00;;;2.20;;
12784;SDS011;6456;42.680;23.260;2022-11-20T08:08:33;4.97;;;1.67;;
12784;SDS011;6456;42.680;23.260;2022-11-20T08:11:00;4.97;;;1.83;;
12784;SDS011;6456;42.680;23.260;2022-11-20T08:13:41;3.80;;;1.53;;
12784;SDS011;6456;42.680;23.260;2022-11-20T08:16:25;4.00;;;1.50;;
12784;SDS011;6456;42.680;23.260;2022-11-20T08:18:52;2.70;;;1.20;;
12784;SDS011;6456;42.680;23.260;2022-11-20T08:21:19;5.03;;;1.27;;
12784;SDS011;6456;42.680;23.260;2022-11-20T08:23:47;4.23;;;1.30;;
12784;SDS011;6456;42.680;23.260;2022-11-20T08:26:14;4.23;;;1.57;;
12784;SDS011;6456;42.680;23.260;2022-11-20T08:28:41;6.93;;;1.80;;
12784;SDS011;6456;42.680;23.260;2022-11-20T08:31:08;11.37;;;3.90;;
12784;SDS011;6456;42.680;23.260;2022-11-20T08:33:35;1.97;;;1.50;;
12784;SDS011;6456;42.680;23.260;2022-11-20T08:36:02;8.53;;;3.13;;
12784;SDS011;6456;42.680;23.260;2022-11-20T08:38:30;5.43;;;2.53;;
12784;SDS011;6456;42.680;23.260;2022-11-20T08:40:59;3.97;;;1.63;;
12784;SDS011;6456;42.680;23.260;2022-11-20T08:43:44;7.50;;;2.00;;
12784;SDS011;6456;42.680;23.260;2022-11-20T08:46:11;4.33;;;1.90;;
12784;SDS011;6456;42.680;23.260;2022-11-20T08:48:38;3.77;;;1.70;;
12784;SDS011;6456;42.680;23.260;2022-11-20T08:51:08;4.07;;;2.10;;
12784;SDS011;6456;42.680;23.260;2022-11-20T08:53:35;3.20;;;2.00;;
12784;SDS011;6456;42.680;23.260;2022-11-20T08:56:04;7.37;;;3.00;;
12784;SDS011;6456;42.680;23.260;2022-11-20T08:58:31;7.13;;;2.67;;
12784;SDS011;6456;42.680;23.260;2022-11-20T09:00:58;3.70;;;2.33;;
12784;SDS011;6456;42.680;23.260;2022-11-20T09:03:26;4.50;;;2.53;;
12784;SDS011;6456;42.680;23.260;2022-11-20T09:05:56;5.87;;;2.20;;
12784;SDS011;6456;42.680;23.260;2022-11-20T09:08:25;5.50;;;2.37;;
12784;SDS011;6456;42.680;23.260;2022-11-20T09:10:52;7.30;;;2.43;;
12784;SDS011;6456;42.680;23.260;2022-11-20T09:13:21;6.77;;;2.23;;
12784;SDS011;6456;42.680;23.260;2022-11-20T09:15:52;6.43;;;1.97;;
12784;SDS011;6456;42.680;23.260;2022-11-20T09:18:19;3.83;;;2.20;;
12784;SDS011;6456;42.680;23.260;2022-11-20T09:20:47;4.93;;;2.17;;
12784;SDS011;6456;42.680;23.260;2022-11-20T09:23:14;3.97;;;2.00;;
12784;SDS011;6456;42.680;23.260;2022-11-20T09:25:41;4.47;;;2.47;;
12784;SDS011;6456;42.680;23.260;2022-11-20T09:28:08;4.20;;;1.77;;
12784;SDS011;6456;42.680;23.260;2022-11-20T09:30:36;5.17;;;1.83;;
12784;SDS011;6456;42.680;23.260;2022-11-20T09:33:03;2.00;;;1.57;;
12784;SDS011;6456;42.680;23.260;2022-11-20T09:35:31;3.70;;;1.40;;
12784;SDS011;6456;42.680;23.260;2022-11-20T09:37:58;3.83;;;1.50;;
12784;SDS011;6456;42.680;23.260;2022-11-20T09:40:25;5.13;;;2.40;;
12784;SDS011;6456;42.680;23.260;2022-11-20T09:42:55;4.27;;;1.80;;
12784;SDS011;6456;42.680;23.260;2022-11-20T09:45:31;3.03;;;1.83;;
12784;SDS011;6456;42.680;23.260;2022-11-20T09:51:05;2.60;;;1.63;;
12784;SDS011;6456;42.680;23.260;2022-11-20T09:53:41;4.03;;;1.90;;
12784;SDS011;6456;42.680;23.260;2022-11-20T09:56:19;3.67;;;1.80;;
12784;SDS011;6456;42.680;23.260;2022-11-20T09:58:47;4.63;;;1.90;;
12784;SDS011;6456;42.680;23.260;2022-11-20T10:01:18;6.07;;;2.30;;
12784;SDS011;6456;42.680;23.260;2022-11-20T10:03:50;6.73;;;3.67;;
12784;SDS011;6456;42.680;23.260;2022-11-20T10:06:21;7.00;;;4.00;;
12784;SDS011;6456;42.680;23.260;2022-11-20T10:08:57;6.07;;;3.20;;
12784;SDS011;6456;42.680;23.260;2022-11-20T10:11:32;4.40;;;2.70;;
12784;SDS011;6456;42.680;23.260;2022-11-20T10:14:10;3.37;;;2.50;;
12784;SDS011;6456;42.680;23.260;2022-11-20T10:16:50;5.87;;;2.70;;
12784;SDS011;6456;42.680;23.260;2022-11-20T10:19:29;5.60;;;2.63;;
12784;SDS011;6456;42.680;23.260;2022-11-20T10:22:10;8.67;;;3.00;;
12784;SDS011;6456;42.680;23.260;2022-11-20T10:24:48;7.10;;;3.23;;
12784;SDS011;6456;42.680;23.260;2022-11-20T10:27:27;4.63;;;2.77;;
12784;SDS011;6456;42.680;23.260;2022-11-20T10:30:14;5.93;;;2.50;;
12784;SDS011;6456;42.680;23.260;2022-11-20T10:32:45;5.57;;;2.57;;
12784;SDS011;6456;42.680;23.260;2022-11-20T10:35:18;6.20;;;2.90;;
12784;SDS011;6456;42.680;23.260;2022-11-20T10:37:49;8.13;;;3.13;;
12784;SDS011;6456;42.680;23.260;2022-11-20T10:40:23;9.50;;;2.50;;
12784;SDS011;6456;42.680;23.260;2022-11-20T10:42:56;7.50;;;2.97;;
12784;SDS011;6456;42.680;23.260;2022-11-20T10:45:31;9.53;;;3.00;;
12784;SDS011;6456;42.680;23.260;2022-11-20T10:48:10;9.67;;;2.80;;
12784;SDS011;6456;42.680;23.260;2022-11-20T10:50:46;6.47;;;2.83;;
12784;SDS011;6456;42.680;23.260;2022-11-20T10:53:23;10.53;;;3.27;;
12784;SDS011;6456;42.680;23.260;2022-11-20T10:56:07;10.93;;;3.23;;
12784;SDS011;6456;42.680;23.260;2022-11-20T10:58:45;6.23;;;2.60;;
12784;SDS011;6456;42.680;23.260;2022-11-20T11:01:21;5.30;;;1.87;;
12784;SDS011;6456;42.680;23.260;2022-11-20T11:03:50;4.73;;;1.80;;
12784;SDS011;6456;42.680;23.260;2022-11-20T11:06:19;6.00;;;2.33;;
12784;SDS011;6456;42.680;23.260;2022-11-20T11:08:55;5.67;;;2.07;;
12784;SDS011;6456;42.680;23.260;2022-11-20T11:11:27;3.67;;;1.70;;
12784;SDS011;6456;42.680;23.260;2022-11-20T11:14:03;5.53;;;2.20;;
12784;SDS011;6456;42.680;23.260;2022-11-20T11:16:31;2.47;;;1.70;;
12784;SDS011;6456;42.680;23.260;2022-11-20T11:19:06;2.33;;;1.20;;
12784;SDS011;6456;42.680;23.260;2022-11-20T11:21:44;3.17;;;1.43;;
12784;SDS011;6456;42.680;23.260;2022-11-20T11:24:18;3.03;;;1.40;;
12784;SDS011;6456;42.680;23.260;2022-11-20T11:26:51;2.03;;;1.20;;
12784;SDS011;6456;42.680;23.260;2022-11-20T11:29:21;2.07;;;1.30;;
12784;SDS011;6456;42.680;23.260;2022-11-20T11:31:49;4.07;;;1.40;;
12784;SDS011;6456;42.680;23.260;2022-11-20T11:34:17;3.07;;;1.80;;
12784;SDS011;6456;42.680;23.260;2022-11-20T11:36:49;2.83;;;1.50;;
12784;SDS011;6456;42.680;23.260;2022-11-20T11:39:22;0.83;;;0.83;;
12784;SDS011;6456;42.680;23.260;2022-11-20T11:41:51;1.07;;;1.03;;
12784;SDS011;6456;42.680;23.260;2022-11-20T11:44:19;2.93;;;1.30;;
12784;SDS011;6456;42.680;23.260;2022-11-20T11:47:05;2.90;;;1.10;;
12784;SDS011;6456;42.680;23.260;2022-11-20T11:49:38;1.90;;;1.20;;
12784;SDS011;6456;42.680;23.260;2022-11-20T11:52:08;2.80;;;1.00;;
12784;SDS011;6456;42.680;23.260;2022-11-20T11:54:41;3.37;;;1.47;;
12784;SDS011;6456;42.680;23.260;2022-11-20T11:57:15;3.70;;;1.23;;
12784;SDS011;6456;42.680;23.260;2022-11-20T11:59:51;2.40;;;1.10;;
12784;SDS011;6456;42.680;23.260;2022-11-20T12:02:33;1.87;;;1.47;;
12784;SDS011;6456;42.680;23.260;2022-11-20T12:05:08;4.10;;;1.70;;
12784;SDS011;6456;42.680;23.260;2022-11-20T12:07:45;2.70;;;1.20;;
12784;SDS011;6456;42.680;23.260;2022-11-20T12:10:19;2.33;;;1.10;;
12784;SDS011;6456;42.680;23.260;2022-11-20T12:12:50;4.80;;;1.40;;
12784;SDS011;6456;42.680;23.260;2022-11-20T12:15:23;2.97;;;1.20;;
12784;SDS011;6456;42.680;23.260;2022-11-20T12:17:54;3.37;;;1.33;;
12784;SDS011;6456;42.680;23.260;2022-11-20T12:20:24;2.80;;;1.03;;
12784;SDS011;6456;42.680;23.260;2022-11-20T12:22:56;2.70;;;1.03;;
12784;SDS011;6456;42.680;23.260;2022-11-20T12:25:34;2.73;;;1.47;;
12784;SDS011;6456;42.680;23.260;2022-11-20T12:31:02;1.30;;;1.20;;
12784;SDS011;6456;42.680;23.260;2022-11-20T12:33:48;6.13;;;2.50;;
12784;SDS011;6456;42.680;23.260;2022-11-20T12:36:30;4.60;;;1.90;;
12784;SDS011;6456;42.680;23.260;2022-11-20T12:39:12;3.47;;;1.40;;
12784;SDS011;6456;42.680;23.260;2022-11-20T12:41:50;4.33;;;1.60;;
12784;SDS011;6456;42.680;23.260;2022-11-20T12:44:50;3.17;;;1.20;;
12784;SDS011;6456;42.680;23.260;2022-11-20T12:50:28;2.83;;;1.20;;
12784;SDS011;6456;42.680;23.260;2022-11-20T12:53:06;3.17;;;1.23;;
12784;SDS011;6456;42.680;23.260;2022-11-20T12:55:45;1.87;;;1.30;;
12784;SDS011;6456;42.680;23.260;2022-11-20T12:58:18;2.80;;;1.60;;
12784;SDS011;6456;42.680;23.260;2022-11-20T13:00:55;3.47;;;1.10;;
12784;SDS011;6456;42.680;23.260;2022-11-20T13:03:34;2.87;;;1.30;;
12784;SDS011;6456;42.680;23.260;2022-11-20T13:06:13;5.13;;;1.60;;
12784;SDS011;6456;42.680;23.260;2022-11-20T13:08:45;3.67;;;2.00;;
12784;SDS011;6456;42.680;23.260;2022-11-20T13:11:18;5.60;;;4.03;;
12784;SDS011;6456;42.680;23.260;2022-11-20T13:14:00;8.67;;;4.90;;
12784;SDS011;6456;42.680;23.260;2022-11-20T13:16:38;8.33;;;5.33;;
12784;SDS011;6456;42.680;23.260;2022-11-20T13:19:12;7.67;;;5.10;;
12784;SDS011;6456;42.680;23.260;2022-11-20T13:21:42;6.23;;;3.60;;
12784;SDS011;6456;42.680;23.260;2022-11-20T13:24:22;6.17;;;3.90;;
12784;SDS011;6456;42.680;23.260;2022-11-20T13:27:01;8.43;;;4.83;;
12784;SDS011;6456;42.680;23.260;2022-11-20T13:29:45;7.00;;;3.43;;
12784;SDS011;6456;42.680;23.260;2022-11-20T13:32:13;6.80;;;3.43;;
12784;SDS011;6456;42.680;23.260;2022-11-20T13:34:51;3.03;;;2.23;;
12784;SDS011;6456;42.680;23.260;2022-11-20T13:37:28;4.03;;;2.10;;
12784;SDS011;6456;42.680;23.260;2022-11-20T13:40:19;3.47;;;1.67;;
12784;SDS011;6456;42.680;23.260;2022-11-20T13:42:54;1.70;;;1.60;;
12784;SDS011;6456;42.680;23.260;2022-11-20T13:45:26;3.83;;;1.90;;
12784;SDS011;6456;42.680;23.260;2022-11-20T13:47:54;3.17;;;2.13;;
12784;SDS011;6456;42.680;23.260;2022-11-20T13:50:26;3.00;;;2.10;;
12784;SDS011;6456;42.680;23.260;2022-11-20T13:53:09;3.20;;;2.20;;
12784;SDS011;6456;42.680;23.260;2022-11-20T13:55:57;3.27;;;2.10;;
12784;SDS011;6456;42.680;23.260;2022-11-20T13:58:33;4.83;;;2.33;;
12784;SDS011;6456;42.680;23.260;2022-11-20T14:01:14;4.70;;;1.70;;
12784;SDS011;6456;42.680;23.260;2022-11-20T14:03:43;5.63;;;1.80;;
12784;SDS011;6456;42.680;23.260;2022-11-20T14:06:11;3.30;;;1.77;;
12784;SDS011;6456;42.680;23.260;2022-11-20T14:08:44;6.23;;;1.90;;
12784;SDS011;6456;42.680;23.260;2022-11-20T14:11:16;4.73;;;2.00;;
12784;SDS011;6456;42.680;23.260;2022-11-20T14:13:58;4.07;;;1.80;;
12784;SDS011;6456;42.680;23.260;2022-11-20T14:16:30;3.17;;;1.70;;
12784;SDS011;6456;42.680;23.260;2022-11-20T14:19:23;3.40;;;2.00;;
12784;SDS011;6456;42.680;23.260;2022-11-20T14:22:07;2.50;;;1.73;;
12784;SDS011;6456;42.680;23.260;2022-11-20T14:24:36;3.93;;;1.90;;
12784;SDS011;6456;42.680;23.260;2022-11-20T14:27:09;2.10;;;1.63;;
12784;SDS011;6456;42.680;23.260;2022-11-20T14:29:39;1.73;;;1.20;;
12784;SDS011;6456;42.680;23.260;2022-11-20T14:32:08;1.47;;;1.33;;
12784;SDS011;6456;42.680;23.260;2022-11-20T14:34:37;2.17;;;1.40;;
12784;SDS011;6456;42.680;23.260;2022-11-20T14:37:10;1.93;;;1.60;;
12784;SDS011;6456;42.680;23.260;2022-11-20T14:39:41;2.37;;;1.40;;
12784;SDS011;6456;42.680;23.260;2022-11-20T14:42:16;1.30;;;1.20;;
12784;SDS011;6456;42.680;23.260;2022-11-20T14:44:44;2.40;;;1.50;;
12784;SDS011;6456;42.680;23.260;2022-11-20T14:47:12;1.73;;;1.43;;
12784;SDS011;6456;42.680;23.260;2022-11-20T14:49:42;1.60;;;1.50;;
12784;SDS011;6456;42.680;23.260;2022-11-20T14:52:12;2.97;;;1.37;;
12784;SDS011;6456;42.680;23.260;2022-11-20T14:54:43;2.50;;;1.40;;
12784;SDS011;6456;42.680;23.260;2022-11-20T14:57:21;1.47;;;1.30;;
12784;SDS011;6456;42.680;23.260;2022-11-20T14:59:50;2.63;;;1.80;;
12784;SDS011;6456;42.680;23.260;2022-11-20T15:02:17;2.27;;;1.37;;
12784;SDS011;6456;42.680;23.260;2022-11-20T15:04:45;2.60;;;1.60;;
12784;SDS011;6456;42.680;23.260;2022-11-20T15:07:22;2.33;;;1.63;;
12784;SDS011;6456;42.680;23.260;2022-11-20T15:09:59;1.93;;;1.70;;
12784;SDS011;6456;42.680;23.260;2022-11-20T15:12:28;2.93;;;1.60;;
12784;SDS011;6456;42.680;23.260;2022-11-20T15:14:56;3.63;;;1.97;;
12784;SDS011;6456;42.680;23.260;2022-11-20T15:17:24;2.87;;;1.70;;
12784;SDS011;6456;42.680;23.260;2022-11-20T15:19:50;1.93;;;1.47;;